Thursday, October 30, 2014
12:18 UTC
  |  Log In   |  Register Free
Airport Search:

Jackson-Medgar Wiley Evers International Airport
(KJAN)

FAA data valid effective September 18, 2014 - November 13, 2014 (unless otherwise noted).

 
 
 
 
 
 
 
 
 
 
 
 
 
 

Current Aviation Weather for Jackson-Medgar Wiley Evers International Airport (KJAN)

The most recent METAR observation for KJAN was updated at: 1213
METAR Summary (Translated METAR)
KJAN
301154Z 00000KT 8SM CLR 06/04 A3014 RMK AO2 SLP206 T00560044 10089 20050 53006
KHKS
301153Z 00000KT 10SM CLR 08/06 A3014 RMK AO2 SLP202 T00780061 10122 20072 53006
(7.6 nm NW from KJAN)
KJVW
301155Z AUTO 00000KT 5SM HZ CLR 04/01 A3015 RMK AO2
(16.9 nm SW from KJAN)
TAF Summary (Translated TAF)
KJAN
300520Z 3006/3106 01005KT P6SM SKC
KHKS
(7.6 nm NW from KJAN)
300520Z 3006/3106 01005KT P6SM SKC
  Airport Weather Conditions for KJAN

 Current Weather at JAN
42° F
Fair
North winds at 0.0 mph
JAN NOAA Radar

Pressure: 30.14 in
Humidity: 92%
Wind: Calm
Dew Point: 39.9°F
Visibility: 8.00 mi


Airport Weather Forecast for KJAN

Translated METAR and TAF for KJAN
Translated METAR for KJAN (1213 UTC 30 October 2014)
found at http://aviationweather.gov/adds/metars/
 
METAR text: KJAN 301154Z 00000KT 8SM CLR 06/04 A3014 RMK AO2 SLP206 T00560044 10089 20050 53006
Conditions at: KJAN (JACKSON , MS, US) observed 1154 UTC 30 October 2014
Temperature: 5.6°C (42°F)
Dewpoint: 4.4°C (40°F) [RH = 92%]
Pressure (altimeter): 30.14 inches Hg (1020.7 mb)
[Sea-level pressure: 1020.6 mb]
Winds: calm
Visibility: 8 miles (13 km)
Ceiling: at least 12,000 feet AGL
Clouds: sky clear below 12,000 feet AGL
Weather: no significant weather observed at this time
Translated TAF for KJAN
Forecast for: KJAN (JACKSON , MS, US)
TAF Text: KJAN 301127Z 3012/3112 01005KT P6SM SKC
Forecast period: 1200 UTC 30 October 2014 to 1200 UTC 31 October 2014
Forecast type: FROM: standard forecast or significant change
Winds: from the N (10 degrees) at 6 MPH (5 knots; 2.6 m/s)
Visibility: 6 or more miles (10+ km)
Clouds: clear skies
Weather: no significant weather forecast for this period

Find All Airport Services Find A Hotel Find A Rental Car Find A Golf Course Find A Restaurant $100 Hamburger



FBO's on the Field
FBO Company Facility Photos Services Transportation Aviation Fuel Prices: Prices include tax
Catering Weather Repair Courtesy Rental Type 100LL JetA JetA+ MOGAS 8087
 
Atlantic Aviation

This FBO has not yet been rated
FS:Chevron
Last Updated: Oct-29
Login to update fuel prices
SS:
Contact Atlantic AviationMore FBO Information
 
Add another FBO Facility Photos Catering Weather Repair Courtesy Rental Type 100LL JetA JetA+ MOGAS 8087
Services Transportation Aviation Fuel Prices: Prices include tax


model-print
model-print
model-print
model-print